San Francisco, California
Traffic Map
Current Weather Conditions
San Francisco, California
Scattered Clouds
Scattered Clouds
22°
Feels Like: 22°
Wind Chill: 22° Ceiling: Unl
Heat Index: 22° Visibility: 10mi
Dew Point: 14° Wind: 22mph
Humidity: 61% Direction: 290° (WNW)
Pressure: 30.01in Gusts: 0mph
Raw Report DataKSFO 292156Z 29019KT 10SM FEW009 SCT200 22/14 A3001 RMK AO2 SLP163 T02170139 $
Traffic Incident Summary
Active as of:
Severity:
Category:
InformationThere was an issue retrieving the traffic information for this location. Please try a different location or try again shortly.
Advertisements
Track Severe Weather on mobile